createdAt,value
2022-12-23T12:58:57.744Z,995.57
2022-12-23T12:59:27.691Z,995.49
2022-12-23T13:00:05.267Z,995.49
2022-12-23T13:00:28.663Z,995.49
2022-12-23T13:00:57.729Z,995.45
2022-12-23T13:01:27.743Z,995.44
2022-12-23T13:01:57.769Z,995.48
2022-12-23T13:02:27.760Z,995.49
2022-12-23T13:02:57.615Z,995.49
2022-12-23T13:03:27.579Z,995.50
2022-12-23T13:03:57.541Z,995.48
2022-12-23T13:04:27.516Z,995.53
2022-12-23T13:04:57.477Z,995.49
2022-12-23T13:05:27.459Z,995.56
2022-12-23T13:05:57.404Z,995.53
2022-12-23T13:06:27.360Z,995.51
2022-12-23T13:06:57.341Z,995.52
2022-12-23T13:07:27.308Z,995.53
2022-12-23T13:07:57.265Z,995.46
2022-12-23T13:08:27.243Z,995.46
2022-12-23T13:08:57.213Z,995.51
2022-12-23T13:09:27.147Z,995.48
2022-12-23T13:09:57.105Z,995.47
2022-12-23T13:10:27.076Z,995.37
2022-12-23T13:10:57.031Z,995.34
2022-12-23T13:11:28.758Z,995.30
2022-12-23T13:11:56.947Z,995.28
2022-12-23T13:12:26.892Z,995.27
2022-12-23T13:12:56.858Z,995.15
2022-12-23T13:13:26.808Z,995.18
2022-12-23T13:13:56.809Z,995.14
2022-12-23T13:14:26.730Z,995.17
2022-12-23T13:14:56.670Z,995.14
2022-12-23T13:15:26.619Z,995.14
2022-12-23T13:15:56.581Z,995.15
2022-12-23T13:16:26.563Z,995.14
2022-12-23T13:16:56.530Z,995.11
2022-12-23T13:17:26.446Z,995.12
2022-12-23T13:18:00.369Z,995.12
2022-12-23T13:18:27.341Z,995.11
2022-12-23T13:18:56.274Z,995.12
2022-12-23T13:19:26.217Z,995.13
2022-12-23T13:19:56.177Z,995.09
2022-12-23T13:20:26.142Z,995.08
2022-12-23T13:20:56.071Z,995.08
2022-12-23T13:21:26.007Z,995.14
2022-12-23T13:21:55.992Z,995.16
2022-12-23T13:22:25.904Z,995.10
2022-12-23T13:22:55.873Z,995.07
2022-12-23T13:24:03.445Z,994.88
2022-12-23T13:24:26.732Z,994.86
2022-12-23T13:24:55.826Z,994.82
2022-12-23T13:25:25.656Z,994.80
2022-12-23T13:25:55.560Z,994.74
2022-12-23T13:26:25.489Z,994.80
2022-12-23T13:26:55.494Z,994.79
2022-12-23T13:27:25.375Z,994.74
2022-12-23T13:27:55.328Z,994.73
2022-12-23T13:28:25.262Z,994.70
2022-12-23T13:28:55.213Z,994.63
2022-12-23T13:29:25.153Z,994.63
2022-12-23T13:29:58.230Z,994.58
2022-12-23T13:30:25.051Z,994.45
2022-12-23T13:30:55.088Z,994.21
2022-12-23T13:31:25.063Z,994.07
2022-12-23T13:31:54.912Z,993.94
2022-12-23T13:32:24.841Z,993.82
2022-12-23T13:32:54.768Z,993.95
2022-12-23T13:33:24.707Z,994.26
2022-12-23T13:33:54.652Z,994.60
2022-12-23T13:34:24.592Z,994.79
2022-12-23T13:34:54.538Z,994.93
2022-12-23T13:35:24.472Z,994.91
2022-12-23T13:35:59.757Z,994.84
2022-12-23T13:36:25.391Z,994.85
2022-12-23T13:36:54.368Z,994.80
2022-12-23T13:37:24.224Z,994.74
2022-12-23T13:37:54.186Z,994.74
2022-12-23T13:38:24.102Z,994.72
2022-12-23T13:38:54.053Z,994.67
2022-12-23T13:39:23.987Z,994.68
2022-12-23T13:39:53.961Z,994.71
2022-12-23T13:40:23.868Z,994.68
2022-12-23T13:40:53.820Z,994.67
2022-12-23T13:41:23.745Z,994.57
2022-12-23T13:41:53.709Z,994.58
2022-12-23T13:42:23.640Z,994.57
2022-12-23T13:42:53.571Z,994.56
2022-12-23T13:43:23.506Z,994.53
2022-12-23T13:43:53.467Z,994.57
2022-12-23T13:44:23.417Z,994.59
2022-12-23T13:44:53.331Z,994.57
2022-12-23T13:45:23.388Z,994.58
2022-12-23T13:45:53.258Z,994.51
2022-12-23T13:46:23.248Z,994.50
2022-12-23T13:46:53.087Z,994.44
2022-12-23T13:47:23.024Z,994.42
2022-12-23T13:47:52.968Z,994.36
2022-12-23T13:48:22.906Z,994.35
2022-12-23T13:48:52.847Z,994.31
2022-12-23T13:49:22.813Z,994.36
2022-12-23T13:49:52.724Z,994.33
2022-12-23T13:50:22.666Z,994.35
2022-12-23T13:50:52.606Z,994.34
2022-12-23T13:51:22.555Z,994.33
2022-12-23T13:51:52.480Z,994.31
2022-12-23T13:52:22.428Z,994.29
2022-12-23T13:52:52.357Z,994.29
2022-12-23T13:53:22.386Z,994.29
2022-12-23T13:53:52.264Z,994.27
2022-12-23T13:54:22.200Z,994.23
2022-12-23T13:54:52.120Z,994.26
2022-12-23T13:55:22.099Z,994.20
2022-12-23T13:55:52.005Z,994.19
2022-12-23T13:56:21.957Z,994.15
2022-12-23T13:56:51.891Z,994.12
2022-12-23T13:57:21.837Z,994.13
2022-12-23T13:57:51.773Z,994.08
2022-12-23T13:58:21.722Z,994.08
2022-12-23T13:58:51.656Z,994.06
2022-12-23T13:59:21.638Z,994.08
2022-12-23T13:59:51.540Z,994.06
2022-12-23T14:00:21.494Z,994.02
2022-12-23T14:00:51.453Z,994.05
2022-12-23T14:01:21.427Z,993.98
2022-12-23T14:01:51.389Z,994.01
2022-12-23T14:02:21.294Z,994.04
2022-12-23T14:02:51.272Z,994.01
2022-12-23T14:03:21.133Z,993.98
2022-12-23T14:03:51.082Z,994.02
2022-12-23T14:04:21.038Z,993.99
2022-12-23T14:04:51.872Z,994.01
2022-12-23T14:05:20.907Z,994.06
2022-12-23T14:05:51.042Z,994.09
2022-12-23T14:06:20.789Z,994.11
2022-12-23T14:06:50.724Z,994.12
2022-12-23T14:07:20.674Z,994.17
2022-12-23T14:07:50.601Z,994.18
2022-12-23T14:08:20.588Z,994.24
2022-12-23T14:08:50.511Z,994.27
2022-12-23T14:09:20.437Z,994.25
2022-12-23T14:09:50.370Z,994.29
2022-12-23T14:10:20.322Z,994.25
2022-12-23T14:10:50.255Z,994.27
2022-12-23T14:11:20.208Z,994.29
2022-12-23T14:11:50.142Z,994.23
2022-12-23T14:12:20.121Z,994.26
2022-12-23T14:12:50.035Z,994.19
2022-12-23T14:13:19.989Z,994.20
2022-12-23T14:13:49.915Z,994.17
2022-12-23T14:14:19.878Z,994.20
2022-12-23T14:14:49.792Z,994.14
2022-12-23T14:15:19.766Z,994.12
2022-12-23T14:15:49.811Z,994.13
2022-12-23T14:16:19.722Z,994.12
2022-12-23T14:16:49.575Z,994.11
2022-12-23T14:17:19.521Z,994.06
2022-12-23T14:17:49.457Z,994.04
2022-12-23T14:18:19.413Z,994.01
2022-12-23T14:18:49.370Z,994.03
2022-12-23T14:19:19.298Z,993.99
2022-12-23T14:19:49.249Z,993.99
2022-12-23T14:20:19.188Z,993.97
2022-12-23T14:20:49.132Z,993.90
2022-12-23T14:21:19.080Z,993.86
2022-12-23T14:21:49.042Z,993.89
2022-12-23T14:22:18.971Z,993.91
2022-12-23T14:22:48.911Z,993.91
2022-12-23T14:23:18.906Z,993.89
2022-12-23T14:23:48.794Z,993.89
2022-12-23T14:24:18.749Z,993.92
2022-12-23T14:24:48.676Z,993.92
2022-12-23T14:25:18.661Z,993.94
2022-12-23T14:25:48.589Z,993.94
2022-12-23T14:26:18.519Z,993.86
2022-12-23T14:26:48.449Z,993.83
2022-12-23T14:27:18.421Z,993.82
2022-12-23T14:27:48.339Z,993.86
2022-12-23T14:28:18.316Z,993.84
2022-12-23T14:28:48.227Z,993.82
2022-12-23T14:29:18.178Z,993.81
2022-12-23T14:29:48.107Z,993.80
2022-12-23T14:30:18.085Z,993.84
2022-12-23T14:30:48.093Z,993.85
2022-12-23T14:31:18.048Z,993.84
2022-12-23T14:31:48.010Z,993.85
2022-12-23T14:32:17.833Z,993.78
2022-12-23T14:32:47.767Z,993.86
2022-12-23T14:33:17.738Z,993.81
2022-12-23T14:33:47.655Z,993.78
2022-12-23T14:34:17.607Z,993.78
2022-12-23T14:34:47.537Z,993.78
2022-12-23T14:35:17.597Z,993.78
2022-12-23T14:35:47.450Z,993.71
2022-12-23T14:36:17.457Z,993.69
2022-12-23T14:36:47.457Z,993.70
2022-12-23T14:37:17.266Z,993.72
2022-12-23T14:37:47.204Z,993.73
2022-12-23T14:38:17.163Z,993.70
2022-12-23T14:38:47.097Z,993.71
2022-12-23T14:39:17.053Z,993.68
2022-12-23T14:39:46.988Z,993.67
2022-12-23T14:40:16.955Z,993.64
2022-12-23T14:40:46.871Z,993.63
2022-12-23T14:41:16.825Z,993.62
2022-12-23T14:41:46.783Z,993.63
2022-12-23T14:42:16.954Z,993.63
2022-12-23T14:42:46.645Z,993.63
2022-12-23T14:43:16.611Z,993.66
2022-12-23T14:43:46.557Z,993.58
2022-12-23T14:44:16.489Z,993.58
2022-12-23T14:44:46.449Z,993.59
2022-12-23T14:45:16.379Z,993.56
2022-12-23T14:45:46.319Z,993.57
2022-12-23T14:46:16.309Z,993.62
2022-12-23T14:46:46.304Z,993.57
2022-12-23T14:47:20.975Z,993.58
2022-12-23T14:47:47.125Z,993.55
2022-12-23T14:48:16.075Z,993.54
2022-12-23T14:48:46.003Z,993.53
2022-12-23T14:49:38.358Z,993.52
2022-12-23T14:49:46.891Z,993.49
2022-12-23T14:50:15.844Z,993.53
2022-12-23T14:50:45.783Z,993.53
2022-12-23T14:51:15.743Z,993.51
2022-12-23T14:51:45.703Z,993.56
2022-12-23T14:52:15.626Z,993.53
2022-12-23T14:52:45.566Z,993.59
2022-12-23T14:53:15.528Z,993.62
2022-12-23T14:53:45.463Z,993.60
2022-12-23T14:54:15.479Z,993.57
2022-12-23T14:55:00.332Z,993.59
2022-12-23T14:55:32.335Z,993.63
2022-12-23T14:55:46.258Z,993.64
2022-12-23T14:56:15.218Z,993.67
2022-12-23T14:56:45.143Z,993.64
2022-12-23T14:57:15.100Z,993.63
2022-12-23T14:57:45.039Z,993.56
2022-12-23T14:58:14.973Z,993.59
2022-12-23T14:58:44.904Z,993.57
2022-12-23T14:59:14.881Z,993.59
2022-12-23T14:59:44.793Z,993.65
2022-12-23T15:00:14.751Z,993.68
2022-12-23T15:00:44.735Z,993.68
2022-12-23T15:01:14.739Z,993.65
2022-12-23T15:01:44.667Z,993.54
2022-12-23T15:02:14.605Z,993.54
2022-12-23T15:02:44.526Z,993.58
2022-12-23T15:03:14.517Z,993.65
2022-12-23T15:03:44.367Z,993.64
2022-12-23T15:04:14.357Z,993.60
2022-12-23T15:04:44.280Z,993.58
2022-12-23T15:05:14.223Z,993.54
2022-12-23T15:05:44.159Z,993.59
2022-12-23T15:06:14.110Z,993.62
2022-12-23T15:06:44.055Z,993.57
2022-12-23T15:07:14.027Z,993.62
2022-12-23T15:07:43.947Z,993.54
2022-12-23T15:08:13.911Z,993.54
2022-12-23T15:08:43.839Z,993.55
2022-12-23T15:09:13.803Z,993.61
2022-12-23T15:09:43.740Z,993.61
2022-12-23T15:10:13.686Z,993.64
2022-12-23T15:10:43.634Z,993.69
2022-12-23T15:11:13.628Z,993.65
2022-12-23T15:11:43.535Z,993.66
2022-12-23T15:12:13.489Z,993.61
2022-12-23T15:12:43.457Z,993.61
2022-12-23T15:13:13.388Z,993.63
2022-12-23T15:13:43.347Z,993.61
2022-12-23T15:14:13.294Z,993.61
2022-12-23T15:14:43.236Z,993.55
2022-12-23T15:15:13.191Z,993.51
2022-12-23T15:15:43.176Z,993.48
2022-12-23T15:16:13.120Z,993.47
2022-12-23T15:16:43.076Z,993.45
2022-12-23T15:17:13.002Z,993.47
2022-12-23T15:17:42.928Z,993.42
2022-12-23T15:18:12.909Z,993.38
2022-12-23T15:18:42.853Z,993.40
2022-12-23T15:19:12.779Z,993.41
2022-12-23T15:19:42.715Z,993.48
2022-12-23T15:20:12.702Z,993.47
2022-12-23T15:20:42.612Z,993.45
2022-12-23T15:21:12.620Z,993.47
2022-12-23T15:21:46.149Z,993.49
2022-12-23T15:22:22.088Z,993.45
2022-12-23T15:22:43.422Z,993.44
2022-12-23T15:23:12.355Z,993.45
2022-12-23T15:23:42.293Z,993.43
2022-12-23T15:24:12.259Z,993.42
2022-12-23T15:24:42.188Z,993.47
2022-12-23T15:25:12.152Z,993.48
2022-12-23T15:25:42.064Z,993.47
2022-12-23T15:26:12.017Z,993.50
2022-12-23T15:27:03.447Z,993.54
2022-12-23T15:27:29.629Z,993.53
2022-12-23T15:27:42.844Z,993.55
2022-12-23T15:28:11.821Z,993.58
2022-12-23T15:28:41.817Z,993.58
2022-12-23T15:29:11.701Z,993.58
2022-12-23T15:29:41.662Z,993.61
2022-12-23T15:30:11.603Z,993.64
2022-12-23T15:30:41.538Z,993.67
2022-12-23T15:31:11.522Z,993.69
2022-12-23T15:31:41.495Z,993.71
2022-12-23T15:32:11.390Z,993.71
2022-12-23T15:32:41.331Z,993.66
2022-12-23T15:33:43.336Z,993.71
2022-12-23T15:34:17.025Z,993.74
2022-12-23T15:34:42.120Z,993.78
2022-12-23T15:35:11.096Z,993.73
2022-12-23T15:35:41.027Z,993.75
2022-12-23T15:36:11.049Z,993.73
2022-12-23T15:36:41.002Z,993.79
2022-12-23T15:37:10.875Z,993.76
2022-12-23T15:37:40.814Z,993.76
2022-12-23T15:38:10.779Z,993.79
2022-12-23T15:38:40.721Z,993.73
2022-12-23T15:39:10.725Z,993.73
2022-12-23T15:39:40.622Z,993.73
2022-12-23T15:40:13.579Z,993.76
2022-12-23T15:40:40.506Z,993.77
2022-12-23T15:41:10.468Z,993.78
2022-12-23T15:41:40.405Z,993.76
2022-12-23T15:42:10.367Z,993.73
2022-12-23T15:42:40.348Z,993.73
2022-12-23T15:43:10.261Z,993.76
2022-12-23T15:43:40.213Z,993.74
2022-12-23T15:44:10.161Z,993.75
2022-12-23T15:44:40.101Z,993.73
2022-12-23T15:45:10.088Z,993.72
2022-12-23T15:45:40.015Z,993.73
2022-12-23T15:46:10.071Z,993.73
2022-12-23T15:46:39.954Z,993.75
2022-12-23T15:47:09.921Z,993.73
2022-12-23T15:47:39.816Z,993.76
2022-12-23T15:48:09.756Z,993.74
2022-12-23T15:48:39.695Z,993.86
2022-12-23T15:49:09.678Z,993.85
2022-12-23T15:49:39.593Z,993.82
2022-12-23T15:50:09.548Z,993.86
2022-12-23T15:50:39.518Z,993.87
2022-12-23T15:51:09.446Z,993.86
2022-12-23T15:52:17.948Z,993.84
2022-12-23T15:52:40.293Z,993.88
2022-12-23T15:53:09.227Z,993.91
2022-12-23T15:53:39.174Z,993.86
2022-12-23T15:54:09.133Z,993.85
2022-12-23T15:54:39.064Z,993.92
2022-12-23T15:55:09.021Z,993.93
2022-12-23T15:55:38.966Z,993.87
2022-12-23T15:56:08.923Z,993.86
2022-12-23T15:56:38.892Z,993.87
2022-12-23T15:57:08.815Z,993.84
2022-12-23T15:57:38.771Z,993.88
2022-12-23T15:58:08.711Z,993.83
2022-12-23T15:58:38.669Z,993.83
2022-12-23T15:59:08.626Z,993.89
2022-12-23T15:59:38.580Z,993.88
2022-12-23T16:00:08.493Z,993.88
2022-12-23T16:00:38.461Z,993.90
2022-12-23T16:01:08.408Z,993.89
2022-12-23T16:01:38.507Z,993.83
2022-12-23T16:02:32.063Z,993.89
2022-12-23T16:03:15.620Z,993.95
2022-12-23T16:03:39.400Z,993.94
2022-12-23T16:04:08.201Z,993.95
2022-12-23T16:04:38.165Z,993.93
2022-12-23T16:05:08.020Z,993.97
2022-12-23T16:05:37.965Z,993.94
2022-12-23T16:06:07.899Z,993.93
2022-12-23T16:06:37.877Z,993.93
2022-12-23T16:07:07.806Z,993.95
2022-12-23T16:07:37.773Z,993.98
2022-12-23T16:08:07.713Z,994.01
2022-12-23T16:08:37.668Z,993.96
2022-12-23T16:09:07.608Z,993.96
2022-12-23T16:09:37.589Z,993.96
2022-12-23T16:10:07.511Z,993.96
2022-12-23T16:10:37.494Z,993.98
2022-12-23T16:11:07.421Z,993.98
2022-12-23T16:11:37.379Z,993.97
2022-12-23T16:12:07.318Z,994.00
2022-12-23T16:12:37.335Z,994.01
2022-12-23T16:13:07.222Z,993.97
2022-12-23T16:13:41.504Z,993.98
2022-12-23T16:14:08.126Z,994.01
2022-12-23T16:14:37.090Z,993.98
2022-12-23T16:15:07.044Z,994.03
2022-12-23T16:15:36.979Z,993.99
2022-12-23T16:16:07.032Z,993.98
2022-12-23T16:16:36.956Z,994.00
2022-12-23T16:17:06.812Z,994.03
2022-12-23T16:17:36.772Z,994.09
2022-12-23T16:18:06.736Z,994.06
2022-12-23T16:18:37.655Z,994.03
2022-12-23T16:19:06.613Z,994.03
2022-12-23T16:19:36.567Z,994.08
2022-12-23T16:20:06.536Z,994.08
2022-12-23T16:20:36.468Z,994.07
2022-12-23T16:21:06.409Z,994.08
2022-12-23T16:21:36.409Z,994.11
2022-12-23T16:22:06.305Z,994.09
2022-12-23T16:22:36.282Z,994.11
2022-12-23T16:23:06.200Z,994.05
2022-12-23T16:23:36.153Z,994.08
2022-12-23T16:24:06.095Z,994.08
2022-12-23T16:24:36.067Z,994.10
2022-12-23T16:25:05.991Z,994.09
2022-12-23T16:25:35.970Z,994.10
2022-12-23T16:26:05.891Z,994.08
2022-12-23T16:26:35.866Z,994.19
2022-12-23T16:27:05.789Z,994.14
2022-12-23T16:27:35.741Z,994.15
2022-12-23T16:28:05.680Z,994.15
2022-12-23T16:28:35.636Z,994.16
2022-12-23T16:29:05.573Z,994.13
2022-12-23T16:29:35.571Z,994.17
2022-12-23T16:30:05.498Z,994.14
2022-12-23T16:30:35.464Z,994.16
2022-12-23T16:31:05.433Z,994.18
2022-12-23T16:31:35.361Z,994.26
2022-12-23T16:32:05.362Z,994.20
2022-12-23T16:32:35.207Z,994.18
2022-12-23T16:33:05.140Z,994.16
2022-12-23T16:33:35.098Z,994.19
2022-12-23T16:34:05.041Z,994.19
2022-12-23T16:34:35.013Z,994.18
2022-12-23T16:35:04.932Z,994.19
2022-12-23T16:35:34.901Z,994.22
2022-12-23T16:36:04.875Z,994.17
2022-12-23T16:36:34.897Z,994.17
2022-12-23T16:37:04.709Z,994.23
2022-12-23T16:37:34.664Z,994.19
2022-12-23T16:38:04.623Z,994.23
2022-12-23T16:38:34.559Z,994.20
2022-12-23T16:39:04.493Z,994.25
2022-12-23T16:39:34.447Z,994.21
2022-12-23T16:40:04.390Z,994.26
2022-12-23T16:40:34.344Z,994.22
2022-12-23T16:41:04.280Z,994.23
2022-12-23T16:41:34.245Z,994.26
2022-12-23T16:42:04.176Z,994.26
2022-12-23T16:42:34.138Z,994.27
2022-12-23T16:43:04.103Z,994.26
2022-12-23T16:43:34.037Z,994.24
2022-12-23T16:44:03.980Z,994.25
2022-12-23T16:44:33.934Z,994.24
2022-12-23T16:45:03.882Z,994.34
2022-12-23T16:45:33.832Z,994.34
2022-12-23T16:46:04.138Z,994.40
2022-12-23T16:46:33.721Z,994.38
2022-12-23T16:47:03.675Z,994.37
2022-12-23T16:47:33.608Z,994.33
2022-12-23T16:48:03.549Z,994.34
2022-12-23T16:48:33.752Z,994.34
2022-12-23T16:49:04.991Z,994.36
2022-12-23T16:49:34.160Z,994.39
2022-12-23T16:50:03.341Z,994.37
2022-12-23T16:50:33.301Z,994.41
2022-12-23T16:51:03.269Z,994.43
2022-12-23T16:51:33.326Z,994.43
2022-12-23T16:52:03.166Z,994.43
2022-12-23T16:52:33.089Z,994.41
2022-12-23T16:53:03.040Z,994.40
2022-12-23T16:53:33.012Z,994.47
2022-12-23T16:54:02.943Z,994.50
2022-12-23T16:54:33.145Z,994.53
2022-12-23T16:55:02.942Z,994.53
2022-12-23T16:55:32.783Z,994.55
2022-12-23T16:56:02.731Z,994.52
2022-12-23T16:56:32.745Z,994.58
2022-12-23T16:57:02.618Z,994.62
2022-12-23T16:57:32.576Z,994.58
2022-12-23T16:58:02.750Z,994.66
2022-12-23T16:58:32.495Z,994.68
2022-12-23T16:59:03.409Z,994.60
2022-12-23T16:59:32.965Z,994.57
2022-12-23T17:00:02.448Z,994.64
2022-12-23T17:00:32.349Z,994.66
2022-12-23T17:01:02.421Z,994.71
2022-12-23T17:01:32.363Z,994.68
2022-12-23T17:02:03.961Z,994.75
2022-12-23T17:02:32.959Z,994.83
2022-12-23T17:03:02.053Z,994.80
2022-12-23T17:03:32.038Z,994.85
2022-12-23T17:04:01.974Z,994.88
2022-12-23T17:04:31.883Z,994.84
2022-12-23T17:05:01.874Z,994.84
2022-12-23T17:05:31.780Z,994.84
2022-12-23T17:06:01.726Z,994.90
2022-12-23T17:06:31.707Z,994.97
2022-12-23T17:07:01.663Z,995.03
2022-12-23T17:07:31.603Z,995.02
2022-12-23T17:08:01.524Z,995.03
2022-12-23T17:08:31.480Z,994.99
2022-12-23T17:09:01.468Z,995.05
2022-12-23T17:09:31.406Z,995.10
2022-12-23T17:10:01.327Z,995.11
2022-12-23T17:10:31.280Z,995.14
2022-12-23T17:11:01.227Z,995.11
2022-12-23T17:11:31.185Z,995.18
2022-12-23T17:12:01.142Z,995.15
2022-12-23T17:12:31.083Z,995.14
2022-12-23T17:13:01.024Z,995.21
2022-12-23T17:13:30.999Z,995.12
2022-12-23T17:14:05.667Z,995.16
2022-12-23T17:14:31.903Z,995.21
2022-12-23T17:15:00.837Z,995.15
2022-12-23T17:15:30.789Z,995.20
2022-12-23T17:16:00.807Z,995.21
2022-12-23T17:16:30.798Z,995.16
2022-12-23T17:17:00.716Z,995.24
2022-12-23T17:17:30.609Z,995.24
2022-12-23T17:18:00.613Z,995.24
2022-12-23T17:18:30.493Z,995.21
2022-12-23T17:19:00.444Z,995.26
2022-12-23T17:19:30.427Z,995.38
2022-12-23T17:20:00.361Z,995.36
2022-12-23T17:20:30.305Z,995.41
2022-12-23T17:21:00.237Z,995.39
2022-12-23T17:21:30.236Z,995.35
2022-12-23T17:22:00.215Z,995.39
2022-12-23T17:22:30.119Z,995.34
2022-12-23T17:23:00.050Z,995.32
2022-12-23T17:23:30.000Z,995.38
2022-12-23T17:23:59.983Z,995.42
2022-12-23T17:24:29.953Z,995.42
2022-12-23T17:24:59.895Z,995.41
2022-12-23T17:25:29.828Z,995.39
2022-12-23T17:25:59.760Z,995.40
2022-12-23T17:26:29.736Z,995.40
2022-12-23T17:26:59.676Z,995.42
2022-12-23T17:27:29.652Z,995.41
2022-12-23T17:27:59.581Z,995.44
2022-12-23T17:28:29.546Z,995.45
2022-12-23T17:28:59.484Z,995.44
2022-12-23T17:29:29.464Z,995.43
2022-12-23T17:29:59.389Z,995.44
2022-12-23T17:30:29.348Z,995.44
2022-12-23T17:30:59.335Z,995.48
2022-12-23T17:31:29.303Z,995.50
2022-12-23T17:31:59.246Z,995.49
2022-12-23T17:32:29.234Z,995.52
2022-12-23T17:32:59.108Z,995.53
2022-12-23T17:33:29.094Z,995.55
2022-12-23T17:33:59.042Z,995.53
2022-12-23T17:34:29.013Z,995.54
2022-12-23T17:34:58.932Z,995.58
2022-12-23T17:35:28.894Z,995.56
2022-12-23T17:35:59.010Z,995.61
2022-12-23T17:36:28.906Z,995.63
2022-12-23T17:36:59.026Z,995.63
2022-12-23T17:37:28.684Z,995.62
2022-12-23T17:37:58.635Z,995.59
2022-12-23T17:38:28.611Z,995.66
2022-12-23T17:38:58.496Z,995.61
2022-12-23T17:39:28.477Z,995.65
2022-12-23T17:39:58.411Z,995.62
2022-12-23T17:40:28.347Z,995.65
2022-12-23T17:40:58.297Z,995.62
2022-12-23T17:41:28.248Z,995.68
2022-12-23T17:41:58.207Z,995.68
2022-12-23T17:42:28.144Z,995.67
2022-12-23T17:42:58.095Z,995.67
2022-12-23T17:43:28.048Z,995.69
2022-12-23T17:43:57.997Z,995.70
2022-12-23T17:44:27.979Z,995.72
2022-12-23T17:44:57.956Z,995.77
2022-12-23T17:45:27.900Z,995.76
2022-12-23T17:45:57.969Z,995.74
2022-12-23T17:46:27.799Z,995.69
2022-12-23T17:46:57.703Z,995.72
2022-12-23T17:47:27.662Z,995.71
2022-12-23T17:47:57.607Z,995.72
2022-12-23T17:48:31.718Z,995.70
2022-12-23T17:48:57.549Z,995.71
2022-12-23T17:49:27.458Z,995.77
2022-12-23T17:49:57.405Z,995.84
2022-12-23T17:50:27.356Z,995.72
2022-12-23T17:50:57.298Z,995.76
2022-12-23T17:51:27.271Z,995.73
2022-12-23T17:51:57.227Z,995.72
2022-12-23T17:52:27.166Z,995.81
2022-12-23T17:52:57.129Z,995.84
2022-12-23T17:53:27.096Z,995.82
2022-12-23T17:53:57.964Z,995.79
2022-12-23T17:54:26.960Z,995.81
2022-12-23T17:54:56.899Z,995.79
2022-12-23T17:55:26.862Z,995.77
2022-12-23T17:55:56.804Z,995.76
2022-12-23T17:56:26.774Z,995.75
2022-12-23T17:56:56.705Z,995.77
2022-12-23T17:57:26.674Z,995.85
2022-12-23T17:57:56.612Z,995.85
2022-12-23T17:58:26.607Z,995.82
2022-12-23T17:58:56.539Z,995.81
2022-12-23T17:59:26.503Z,995.82
2022-12-23T17:59:56.939Z,995.82
2022-12-23T18:00:33.887Z,995.84
2022-12-23T18:00:57.370Z,995.77
2022-12-23T18:01:26.440Z,995.79
2022-12-23T18:01:56.352Z,995.91
2022-12-23T18:02:26.289Z,995.79
2022-12-23T18:02:56.229Z,995.83
2022-12-23T18:03:26.138Z,995.81
2022-12-23T18:03:56.051Z,995.89
2022-12-23T18:04:26.025Z,995.81
2022-12-23T18:04:55.969Z,995.89
2022-12-23T18:05:25.982Z,995.87
2022-12-23T18:06:01.533Z,995.82
2022-12-23T18:06:26.813Z,995.88
2022-12-23T18:06:55.773Z,995.94
2022-12-23T18:07:25.701Z,995.91
2022-12-23T18:07:55.666Z,995.94
2022-12-23T18:08:25.625Z,995.93
2022-12-23T18:08:55.567Z,995.91
2022-12-23T18:09:25.535Z,995.91
2022-12-23T18:09:55.480Z,995.91
2022-12-23T18:10:25.406Z,995.92
2022-12-23T18:10:55.369Z,995.90
2022-12-23T18:11:25.315Z,995.89
2022-12-23T18:11:55.264Z,995.90
2022-12-23T18:12:25.440Z,995.96
2022-12-23T18:12:55.163Z,995.94
2022-12-23T18:13:25.123Z,995.89
2022-12-23T18:13:55.071Z,995.91
2022-12-23T18:14:25.009Z,995.93
2022-12-23T18:14:54.969Z,995.91
2022-12-23T18:15:24.932Z,995.88
2022-12-23T18:15:54.885Z,995.90
2022-12-23T18:16:24.882Z,995.87
2022-12-23T18:16:54.815Z,995.93
2022-12-23T18:17:24.713Z,995.95
2022-12-23T18:17:54.670Z,995.98
2022-12-23T18:18:33.003Z,995.92
2022-12-23T18:18:55.568Z,995.92
2022-12-23T18:19:24.539Z,995.97
2022-12-23T18:19:54.483Z,995.95
2022-12-23T18:20:24.417Z,996.04
2022-12-23T18:20:54.385Z,996.02
2022-12-23T18:21:24.326Z,996.03
2022-12-23T18:21:54.289Z,996.05
2022-12-23T18:22:24.232Z,996.03
2022-12-23T18:22:54.241Z,996.05
2022-12-23T18:23:24.225Z,996.02
2022-12-23T18:23:54.125Z,996.07
2022-12-23T18:24:24.053Z,996.08
2022-12-23T18:24:59.135Z,996.06
2022-12-23T18:25:24.986Z,996.10
2022-12-23T18:25:53.909Z,996.04
2022-12-23T18:26:23.861Z,996.09
2022-12-23T18:26:53.821Z,996.00
2022-12-23T18:27:23.767Z,996.06
2022-12-23T18:27:53.719Z,996.06
2022-12-23T18:28:23.685Z,996.11
2022-12-23T18:28:53.625Z,996.08
2022-12-23T18:29:23.574Z,996.08
2022-12-23T18:29:53.540Z,996.11
2022-12-23T18:30:23.482Z,996.08
2022-12-23T18:30:53.479Z,996.14
2022-12-23T18:31:23.520Z,996.11
2022-12-23T18:31:53.365Z,996.08
2022-12-23T18:32:23.330Z,996.09
2022-12-23T18:32:53.266Z,996.12
2022-12-23T18:33:23.207Z,996.10
2022-12-23T18:33:53.172Z,996.15
2022-12-23T18:34:23.123Z,996.11
2022-12-23T18:34:53.077Z,996.12
2022-12-23T18:35:23.022Z,996.11
2022-12-23T18:35:52.994Z,996.08
2022-12-23T18:36:22.983Z,996.13
2022-12-23T18:36:52.970Z,996.07
2022-12-23T18:37:22.830Z,996.17
2022-12-23T18:37:52.827Z,996.11
2022-12-23T18:38:22.732Z,996.14
2022-12-23T18:38:52.704Z,996.11
2022-12-23T18:39:22.653Z,996.17
2022-12-23T18:39:52.600Z,996.14
2022-12-23T18:40:24.073Z,996.18
2022-12-23T18:40:52.497Z,996.10
2022-12-23T18:41:22.436Z,996.21
2022-12-23T18:41:52.399Z,996.18
2022-12-23T18:42:22.367Z,996.22
2022-12-23T18:42:52.306Z,996.26
2022-12-23T18:43:22.253Z,996.12
2022-12-23T18:43:52.211Z,996.12
2022-12-23T18:44:22.157Z,996.27
2022-12-23T18:44:52.120Z,996.24
2022-12-23T18:45:22.062Z,996.22
2022-12-23T18:45:53.596Z,996.18
2022-12-23T18:46:22.098Z,996.23
2022-12-23T18:46:52.033Z,996.22
2022-12-23T18:47:21.895Z,996.23
2022-12-23T18:47:51.840Z,996.22
2022-12-23T18:48:21.913Z,996.21
2022-12-23T18:48:51.842Z,996.32
2022-12-23T18:49:21.674Z,996.22
2022-12-23T18:49:51.639Z,996.17
2022-12-23T18:50:21.590Z,996.18
2022-12-23T18:50:51.547Z,996.29
2022-12-23T18:51:21.499Z,996.35
2022-12-23T18:51:51.470Z,996.27
2022-12-23T18:52:21.396Z,996.31
2022-12-23T18:52:51.358Z,996.33
2022-12-23T18:53:24.227Z,996.35
2022-12-23T18:53:51.275Z,996.31
2022-12-23T18:54:21.210Z,996.38
2022-12-23T18:54:51.188Z,996.38
2022-12-23T18:55:21.115Z,996.42
2022-12-23T18:55:51.084Z,996.36
2022-12-23T18:56:21.313Z,996.40
2022-12-23T18:56:50.987Z,996.35
2022-12-23T18:57:20.930Z,996.36
2022-12-23T18:57:50.889Z,996.40
2022-12-23T18:58:20.842Z,996.42
2022-12-23T18:58:50.802Z,996.36
2022-12-23T18:59:27.381Z,996.42
2022-12-23T18:59:51.693Z,996.44
2022-12-23T19:00:20.660Z,996.48
2022-12-23T19:00:50.619Z,996.44
2022-12-23T19:01:20.619Z,996.36
2022-12-23T19:01:50.536Z,996.42
2022-12-23T19:02:20.542Z,996.42
2022-12-23T19:02:50.545Z,996.43
2022-12-23T19:03:20.338Z,996.46
2022-12-23T19:03:50.321Z,996.44
2022-12-23T19:04:20.276Z,996.44
2022-12-23T19:04:50.204Z,996.41
2022-12-23T19:05:20.142Z,996.36
2022-12-23T19:05:50.114Z,996.42
2022-12-23T19:06:20.050Z,996.39
2022-12-23T19:06:50.012Z,996.37
2022-12-23T19:07:19.950Z,996.35
2022-12-23T19:07:49.918Z,996.42
2022-12-23T19:08:25.853Z,996.46
2022-12-23T19:08:50.823Z,996.42
2022-12-23T19:09:19.750Z,996.37
2022-12-23T19:09:49.739Z,996.39
2022-12-23T19:10:19.690Z,996.42
2022-12-23T19:10:49.650Z,996.32
2022-12-23T19:11:19.555Z,996.30
2022-12-23T19:11:49.513Z,996.30
2022-12-23T19:12:19.496Z,996.35
2022-12-23T19:12:49.412Z,996.35
2022-12-23T19:13:19.353Z,996.38
2022-12-23T19:13:49.364Z,996.33
2022-12-23T19:14:19.273Z,996.41